This is the latest recevied weather packets stored in our database for station/object DL5TW-13. If no packets are shown the sender has not sent any weather packets the latest 1 day(s).
| Time | Temp. | Humidity | Pressure | Rain* | Wind** | Luminosity | Snow |
|---|---|---|---|---|---|---|---|
| 1777985099 | 22.78° C | 53% | 1003.4 hPa | 0 mm | 2.24 m/s, 45° | - | - |
| 1777984799 | 23.33° C | 53% | 1003.4 hPa | 0 mm | 0.45 m/s, 67° | - | - |
| 1777984498 | 23.33° C | 53% | 1003.4 hPa | 0 mm | 0.89 m/s, 90° | - | - |
| 1777984198 | 22.78° C | 52% | 1003.4 hPa | 0 mm | 0 m/s | - | - |
| 1777983898 | 22.78° C | 52% | 1003.4 hPa | 0 mm | 1.79 m/s, 67° | - | - |
| 1777983597 | 23.33° C | 52% | 1003.5 hPa | 0 mm | 1.79 m/s, 67° | - | - |
| 1777983297 | 23.89° C | 50% | 1003.6 hPa | 0 mm | 0 m/s | - | - |
| 1777982997 | 24.44° C | 52% | 1003.6 hPa | 0 mm | 0 m/s | - | - |
| 1777982697 | 24.44° C | 52% | 1003.6 hPa | 0 mm | 0.45 m/s, 67° | - | - |
| 1777982396 | 23.89° C | 54% | 1003.5 hPa | 0 mm | 0 m/s | - | - |
| 1777982096 | 23.33° C | 55% | 1003.5 hPa | 0 mm | 0.45 m/s, 67° | - | - |
| 1777981796 | 22.78° C | 58% | 1003.7 hPa | 0 mm | 0 m/s | - | - |
| 1777981495 | 21.11° C | 61% | 1003.6 hPa | 0 mm | 1.34 m/s, 67° | - | - |
| 1777981195 | 21.11° C | 61% | 1003.8 hPa | 0 mm | 0 m/s | - | - |
| 1777980895 | 20.56° C | 60% | 1003.9 hPa | 0 mm | 0.45 m/s, 45° | - | - |
| 1777980595 | 20.56° C | 60% | 1003.8 hPa | 0 mm | 0 m/s | - | - |
| 1777980294 | 21.11° C | 58% | 1003.9 hPa | 0 mm | 1.34 m/s, 67° | - | - |
| 1777979994 | 21.11° C | 58% | 1003.8 hPa | 0 mm | 0 m/s | - | - |
| 1777979694 | 21.11° C | 58% | 1003.9 hPa | 0 mm | 0.89 m/s, 67° | - | - |
| 1777979393 | 21.11° C | 59% | 1003.9 hPa | 0 mm | 0.89 m/s, 90° | - | - |
| 1777979093 | 21.11° C | 59% | 1004 hPa | 0 mm | 0 m/s | - | - |
| 1777978793 | 21.11° C | 61% | 1003.9 hPa | 0 mm | 0 m/s | - | - |
| 1777978493 | 20° C | 61% | 1004 hPa | 0 mm | 0 m/s | - | - |
| 1777978192 | 20° C | 61% | 1004.1 hPa | 0 mm | 0.45 m/s, 112° | - | - |
| 1777977892 | 20° C | 62% | 1004.3 hPa | 0 mm | 1.79 m/s, 67° | - | - |
* Rain latest hour (hover to see other rain measurements)
** Current wind speed in m/s (hover to see current wind gust speed)